Emmetsburg, Iowa
Current Conditions -  °F | °C
As of 7:52 PM on Sunday 21 Dec 2014 (Local Time) from KEST Reporting Station
Haze Haze  
Wind Chill: 27°   Ceiling: 400
Heat Index: 37°   Visibility: 4mi
Dew Point: 36°   Wind: 20mph
Humidity: 96%   Direction: 180°S
Pressure: 29.67"   Gusts: NA
Location:  43.11°N, 94.68°W
Report Text: KEST 220152Z AUTO 18017KT 4SM BR OVC004 03/02 A2967 RMK AO2 SLP059 T00280022
Loading
Personal Weather Stations






























Interactive Weather Map New forecast layout! Learn more

10-Day Weather Forecast

Advertisements
Track Severe Weather on mobile